Hassi-Messaoud, Algeria
Current Conditions -  °F | °C
As of 12:30 AM on Saturday 22 Nov 2014 (Local Time) from DAUH Reporting Station
Clear Clear  
Wind Chill: 61°   Ceiling: Unl
Heat Index: 61°   Visibility: 6mi
Dew Point: 43°   Wind: 0mph
Humidity: 52%   Direction: NA
Pressure: 30.21"   Gusts: NA
Location:  31.68°N, 6.07°E
Report Text: DAUH 212330Z 00000KT CAVOK 16/06 Q1023
Loading
Personal Weather Stations






























Interactive Weather Map New forecast layout! Learn more

10-Day Weather Forecast

Advertisements
Track Severe Weather on mobile